sensor_id;sensor_type;location;lat;lon;timestamp;P1;durP1;ratioP1;P2;durP2;ratioP2
18259;SDS011;9256;52.236;5.712;2023-07-31T00:01:57;2.35;;;1.27;;
18259;SDS011;9256;52.236;5.712;2023-07-31T00:04:24;2.72;;;1.30;;
18259;SDS011;9256;52.236;5.712;2023-07-31T00:06:51;2.47;;;1.35;;
18259;SDS011;9256;52.236;5.712;2023-07-31T00:09:19;3.15;;;1.20;;
18259;SDS011;9256;52.236;5.712;2023-07-31T00:11:46;2.33;;;1.40;;
18259;SDS011;9256;52.236;5.712;2023-07-31T00:14:13;2.03;;;1.30;;
18259;SDS011;9256;52.236;5.712;2023-07-31T00:16:40;2.70;;;1.23;;
18259;SDS011;9256;52.236;5.712;2023-07-31T00:19:07;2.45;;;1.33;;
18259;SDS011;9256;52.236;5.712;2023-07-31T00:21:34;2.90;;;1.38;;
18259;SDS011;9256;52.236;5.712;2023-07-31T00:24:01;2.30;;;1.50;;
18259;SDS011;9256;52.236;5.712;2023-07-31T00:26:29;3.05;;;1.60;;
18259;SDS011;9256;52.236;5.712;2023-07-31T00:28:56;2.38;;;1.55;;
18259;SDS011;9256;52.236;5.712;2023-07-31T00:31:23;2.15;;;1.40;;
18259;SDS011;9256;52.236;5.712;2023-07-31T00:33:50;4.03;;;1.90;;
18259;SDS011;9256;52.236;5.712;2023-07-31T00:36:17;4.35;;;2.00;;
18259;SDS011;9256;52.236;5.712;2023-07-31T00:38:44;3.17;;;1.77;;
18259;SDS011;9256;52.236;5.712;2023-07-31T00:41:11;3.28;;;1.90;;
18259;SDS011;9256;52.236;5.712;2023-07-31T00:43:39;3.20;;;2.05;;
18259;SDS011;9256;52.236;5.712;2023-07-31T00:46:06;2.55;;;1.58;;
18259;SDS011;9256;52.236;5.712;2023-07-31T00:48:33;3.40;;;1.60;;
18259;SDS011;9256;52.236;5.712;2023-07-31T00:51:01;3.22;;;1.63;;
18259;SDS011;9256;52.236;5.712;2023-07-31T00:53:28;2.67;;;1.48;;
18259;SDS011;9256;52.236;5.712;2023-07-31T00:55:55;2.75;;;1.17;;
18259;SDS011;9256;52.236;5.712;2023-07-31T00:58:22;9.15;;;1.50;;
18259;SDS011;9256;52.236;5.712;2023-07-31T01:00:50;4.07;;;1.10;;
18259;SDS011;9256;52.236;5.712;2023-07-31T01:03:17;2.75;;;1.00;;
18259;SDS011;9256;52.236;5.712;2023-07-31T01:05:47;2.22;;;0.85;;
18259;SDS011;9256;52.236;5.712;2023-07-31T01:08:22;2.72;;;1.20;;
18259;SDS011;9256;52.236;5.712;2023-07-31T01:10:58;5.85;;;1.40;;
18259;SDS011;9256;52.236;5.712;2023-07-31T01:13:28;2.10;;;1.30;;
18259;SDS011;9256;52.236;5.712;2023-07-31T01:15:56;5.53;;;1.98;;
18259;SDS011;9256;52.236;5.712;2023-07-31T01:18:23;3.53;;;2.00;;
18259;SDS011;9256;52.236;5.712;2023-07-31T01:20:52;5.78;;;2.63;;
18259;SDS011;9256;52.236;5.712;2023-07-31T01:23:33;5.53;;;2.70;;
18259;SDS011;9256;52.236;5.712;2023-07-31T01:26:12;6.95;;;3.15;;
18259;SDS011;9256;52.236;5.712;2023-07-31T01:28:46;9.18;;;3.47;;
18259;SDS011;9256;52.236;5.712;2023-07-31T01:31:22;7.80;;;3.05;;
18259;SDS011;9256;52.236;5.712;2023-07-31T01:33:50;6.78;;;2.83;;
18259;SDS011;9256;52.236;5.712;2023-07-31T01:36:20;7.60;;;2.58;;
18259;SDS011;9256;52.236;5.712;2023-07-31T01:38:48;7.47;;;2.53;;
18259;SDS011;9256;52.236;5.712;2023-07-31T01:41:17;9.32;;;2.58;;
18259;SDS011;9256;52.236;5.712;2023-07-31T01:43:44;7.80;;;2.38;;
18259;SDS011;9256;52.236;5.712;2023-07-31T01:46:11;8.80;;;2.30;;
18259;SDS011;9256;52.236;5.712;2023-07-31T01:48:38;7.13;;;2.28;;
18259;SDS011;9256;52.236;5.712;2023-07-31T01:51:05;8.55;;;2.22;;
18259;SDS011;9256;52.236;5.712;2023-07-31T01:53:32;8.02;;;2.50;;
18259;SDS011;9256;52.236;5.712;2023-07-31T01:55:59;6.45;;;2.20;;
18259;SDS011;9256;52.236;5.712;2023-07-31T01:58:27;7.43;;;2.17;;
18259;SDS011;9256;52.236;5.712;2023-07-31T02:00:54;7.88;;;2.40;;
18259;SDS011;9256;52.236;5.712;2023-07-31T02:03:21;5.38;;;2.13;;
18259;SDS011;9256;52.236;5.712;2023-07-31T02:05:48;5.20;;;2.00;;
18259;SDS011;9256;52.236;5.712;2023-07-31T02:08:16;6.35;;;2.50;;
18259;SDS011;9256;52.236;5.712;2023-07-31T02:10:43;7.35;;;2.30;;
18259;SDS011;9256;52.236;5.712;2023-07-31T02:13:10;6.43;;;2.03;;
18259;SDS011;9256;52.236;5.712;2023-07-31T02:15:38;7.03;;;2.10;;
18259;SDS011;9256;52.236;5.712;2023-07-31T02:18:05;8.15;;;2.40;;
18259;SDS011;9256;52.236;5.712;2023-07-31T02:20:33;7.15;;;2.22;;
18259;SDS011;9256;52.236;5.712;2023-07-31T02:23:01;8.70;;;2.90;;
18259;SDS011;9256;52.236;5.712;2023-07-31T02:25:28;6.43;;;2.70;;
18259;SDS011;9256;52.236;5.712;2023-07-31T02:27:55;9.20;;;3.17;;
18259;SDS011;9256;52.236;5.712;2023-07-31T02:30:21;6.80;;;2.78;;
18259;SDS011;9256;52.236;5.712;2023-07-31T02:32:50;9.35;;;3.17;;
18259;SDS011;9256;52.236;5.712;2023-07-31T02:35:17;15.80;;;3.85;;
18259;SDS011;9256;52.236;5.712;2023-07-31T02:37:44;11.40;;;3.50;;
18259;SDS011;9256;52.236;5.712;2023-07-31T02:40:11;12.00;;;3.53;;
18259;SDS011;9256;52.236;5.712;2023-07-31T02:42:38;17.15;;;4.80;;
18259;SDS011;9256;52.236;5.712;2023-07-31T02:45:05;22.27;;;5.68;;
18259;SDS011;9256;52.236;5.712;2023-07-31T02:47:33;19.48;;;4.82;;
18259;SDS011;9256;52.236;5.712;2023-07-31T02:50:02;17.70;;;4.57;;
18259;SDS011;9256;52.236;5.712;2023-07-31T02:52:29;22.50;;;5.50;;
18259;SDS011;9256;52.236;5.712;2023-07-31T02:54:55;22.75;;;5.80;;
18259;SDS011;9256;52.236;5.712;2023-07-31T02:57:23;24.80;;;5.75;;
18259;SDS011;9256;52.236;5.712;2023-07-31T02:59:50;23.77;;;5.93;;
18259;SDS011;9256;52.236;5.712;2023-07-31T03:02:16;21.50;;;5.45;;
18259;SDS011;9256;52.236;5.712;2023-07-31T03:04:43;30.70;;;5.95;;
18259;SDS011;9256;52.236;5.712;2023-07-31T03:07:12;23.27;;;5.53;;
18259;SDS011;9256;52.236;5.712;2023-07-31T03:09:39;26.05;;;5.90;;
18259;SDS011;9256;52.236;5.712;2023-07-31T03:12:06;25.35;;;6.03;;
18259;SDS011;9256;52.236;5.712;2023-07-31T03:14:34;24.23;;;5.72;;
18259;SDS011;9256;52.236;5.712;2023-07-31T03:17:01;22.40;;;5.50;;
18259;SDS011;9256;52.236;5.712;2023-07-31T03:19:29;24.17;;;5.88;;
18259;SDS011;9256;52.236;5.712;2023-07-31T03:21:57;27.45;;;5.93;;
18259;SDS011;9256;52.236;5.712;2023-07-31T03:24:25;28.90;;;5.75;;
18259;SDS011;9256;52.236;5.712;2023-07-31T03:26:52;21.92;;;5.45;;
18259;SDS011;9256;52.236;5.712;2023-07-31T03:29:19;22.45;;;5.72;;
18259;SDS011;9256;52.236;5.712;2023-07-31T03:31:46;21.27;;;6.10;;
18259;SDS011;9256;52.236;5.712;2023-07-31T03:34:13;32.40;;;6.78;;
18259;SDS011;9256;52.236;5.712;2023-07-31T03:36:40;28.58;;;6.60;;
18259;SDS011;9256;52.236;5.712;2023-07-31T03:39:06;25.48;;;6.07;;
18259;SDS011;9256;52.236;5.712;2023-07-31T03:41:35;24.63;;;7.13;;
18259;SDS011;9256;52.236;5.712;2023-07-31T03:44:02;26.33;;;6.68;;
18259;SDS011;9256;52.236;5.712;2023-07-31T03:46:29;24.88;;;6.78;;
18259;SDS011;9256;52.236;5.712;2023-07-31T03:48:56;24.60;;;6.50;;
18259;SDS011;9256;52.236;5.712;2023-07-31T03:51:23;27.88;;;6.88;;
18259;SDS011;9256;52.236;5.712;2023-07-31T03:53:49;24.45;;;6.57;;
18259;SDS011;9256;52.236;5.712;2023-07-31T03:56:16;25.02;;;6.70;;
18259;SDS011;9256;52.236;5.712;2023-07-31T03:58:45;25.08;;;6.45;;
18259;SDS011;9256;52.236;5.712;2023-07-31T04:01:12;31.27;;;6.43;;
18259;SDS011;9256;52.236;5.712;2023-07-31T04:03:38;33.03;;;8.77;;
18259;SDS011;9256;52.236;5.712;2023-07-31T04:06:05;31.30;;;7.53;;
18259;SDS011;9256;52.236;5.712;2023-07-31T04:08:33;25.00;;;6.75;;
18259;SDS011;9256;52.236;5.712;2023-07-31T04:11:00;29.98;;;7.32;;
18259;SDS011;9256;52.236;5.712;2023-07-31T04:13:28;34.05;;;7.25;;
18259;SDS011;9256;52.236;5.712;2023-07-31T04:15:57;32.38;;;6.85;;
18259;SDS011;9256;52.236;5.712;2023-07-31T04:18:24;29.88;;;7.25;;
18259;SDS011;9256;52.236;5.712;2023-07-31T04:20:52;32.05;;;7.07;;
18259;SDS011;9256;52.236;5.712;2023-07-31T04:23:19;29.02;;;6.78;;
18259;SDS011;9256;52.236;5.712;2023-07-31T04:25:46;25.23;;;6.85;;
18259;SDS011;9256;52.236;5.712;2023-07-31T04:28:13;27.30;;;6.40;;
18259;SDS011;9256;52.236;5.712;2023-07-31T04:30:40;29.38;;;6.90;;
18259;SDS011;9256;52.236;5.712;2023-07-31T04:33:08;28.00;;;6.88;;
18259;SDS011;9256;52.236;5.712;2023-07-31T04:35:35;25.92;;;7.05;;
18259;SDS011;9256;52.236;5.712;2023-07-31T04:38:02;23.38;;;6.78;;
18259;SDS011;9256;52.236;5.712;2023-07-31T04:40:29;30.40;;;6.95;;
18259;SDS011;9256;52.236;5.712;2023-07-31T04:42:56;33.13;;;6.75;;
18259;SDS011;9256;52.236;5.712;2023-07-31T04:45:22;27.10;;;6.75;;
18259;SDS011;9256;52.236;5.712;2023-07-31T04:47:49;23.58;;;6.72;;
18259;SDS011;9256;52.236;5.712;2023-07-31T04:50:18;27.17;;;7.35;;
18259;SDS011;9256;52.236;5.712;2023-07-31T04:52:45;32.60;;;7.63;;
18259;SDS011;9256;52.236;5.712;2023-07-31T04:55:12;26.15;;;6.40;;
18259;SDS011;9256;52.236;5.712;2023-07-31T04:57:38;28.75;;;7.22;;
18259;SDS011;9256;52.236;5.712;2023-07-31T05:00:06;24.45;;;6.72;;
18259;SDS011;9256;52.236;5.712;2023-07-31T05:02:33;24.05;;;7.00;;
18259;SDS011;9256;52.236;5.712;2023-07-31T05:05:00;27.70;;;7.70;;
18259;SDS011;9256;52.236;5.712;2023-07-31T05:07:29;22.98;;;7.10;;
18259;SDS011;9256;52.236;5.712;2023-07-31T05:09:55;26.52;;;6.55;;
18259;SDS011;9256;52.236;5.712;2023-07-31T05:12:22;23.65;;;7.05;;
18259;SDS011;9256;52.236;5.712;2023-07-31T05:14:49;23.08;;;6.90;;
18259;SDS011;9256;52.236;5.712;2023-07-31T05:17:16;26.20;;;7.30;;
18259;SDS011;9256;52.236;5.712;2023-07-31T05:19:43;21.08;;;6.07;;
18259;SDS011;9256;52.236;5.712;2023-07-31T05:22:10;23.75;;;6.68;;
18259;SDS011;9256;52.236;5.712;2023-07-31T05:24:38;25.58;;;6.32;;
18259;SDS011;9256;52.236;5.712;2023-07-31T05:27:05;23.20;;;7.80;;
18259;SDS011;9256;52.236;5.712;2023-07-31T05:29:33;20.58;;;6.70;;
18259;SDS011;9256;52.236;5.712;2023-07-31T05:32:00;26.60;;;8.50;;
18259;SDS011;9256;52.236;5.712;2023-07-31T05:34:27;22.30;;;7.05;;
18259;SDS011;9256;52.236;5.712;2023-07-31T05:36:54;24.35;;;7.78;;
18259;SDS011;9256;52.236;5.712;2023-07-31T05:39:20;21.80;;;6.82;;
18259;SDS011;9256;52.236;5.712;2023-07-31T05:41:49;17.60;;;6.15;;
18259;SDS011;9256;52.236;5.712;2023-07-31T05:44:16;17.50;;;6.30;;
18259;SDS011;9256;52.236;5.712;2023-07-31T05:46:42;20.15;;;5.80;;
18259;SDS011;9256;52.236;5.712;2023-07-31T05:49:09;17.80;;;5.88;;
18259;SDS011;9256;52.236;5.712;2023-07-31T05:51:36;20.90;;;6.25;;
18259;SDS011;9256;52.236;5.712;2023-07-31T05:54:03;16.95;;;4.97;;
18259;SDS011;9256;52.236;5.712;2023-07-31T05:56:30;17.33;;;5.18;;
18259;SDS011;9256;52.236;5.712;2023-07-31T05:59:00;14.73;;;4.93;;
18259;SDS011;9256;52.236;5.712;2023-07-31T06:01:28;14.57;;;5.13;;
18259;SDS011;9256;52.236;5.712;2023-07-31T06:03:54;14.20;;;4.68;;
18259;SDS011;9256;52.236;5.712;2023-07-31T06:06:21;16.73;;;4.70;;
18259;SDS011;9256;52.236;5.712;2023-07-31T06:08:48;14.48;;;4.47;;
18259;SDS011;9256;52.236;5.712;2023-07-31T06:11:16;18.45;;;4.20;;
18259;SDS011;9256;52.236;5.712;2023-07-31T06:13:43;16.20;;;4.47;;
18259;SDS011;9256;52.236;5.712;2023-07-31T06:16:13;14.70;;;3.92;;
18259;SDS011;9256;52.236;5.712;2023-07-31T06:18:40;14.07;;;3.92;;
18259;SDS011;9256;52.236;5.712;2023-07-31T06:21:07;12.07;;;4.20;;
18259;SDS011;9256;52.236;5.712;2023-07-31T06:23:34;13.25;;;4.80;;
18259;SDS011;9256;52.236;5.712;2023-07-31T06:26:01;12.10;;;4.70;;
18259;SDS011;9256;52.236;5.712;2023-07-31T06:28:28;12.05;;;4.57;;
18259;SDS011;9256;52.236;5.712;2023-07-31T06:30:56;11.13;;;4.85;;
18259;SDS011;9256;52.236;5.712;2023-07-31T06:33:24;11.38;;;5.18;;
18259;SDS011;9256;52.236;5.712;2023-07-31T06:35:51;10.90;;;4.47;;
18259;SDS011;9256;52.236;5.712;2023-07-31T06:38:18;11.75;;;5.07;;
18259;SDS011;9256;52.236;5.712;2023-07-31T06:40:48;13.10;;;5.13;;
18259;SDS011;9256;52.236;5.712;2023-07-31T06:43:15;14.70;;;5.05;;
18259;SDS011;9256;52.236;5.712;2023-07-31T06:45:42;13.05;;;5.88;;
18259;SDS011;9256;52.236;5.712;2023-07-31T06:48:09;11.23;;;5.00;;
18259;SDS011;9256;52.236;5.712;2023-07-31T06:50:38;11.40;;;4.82;;
18259;SDS011;9256;52.236;5.712;2023-07-31T06:53:04;47.83;;;18.38;;
18259;SDS011;9256;52.236;5.712;2023-07-31T06:55:31;33.20;;;10.82;;
18259;SDS011;9256;52.236;5.712;2023-07-31T06:57:59;37.72;;;12.18;;
18259;SDS011;9256;52.236;5.712;2023-07-31T07:00:25;18.85;;;6.97;;
18259;SDS011;9256;52.236;5.712;2023-07-31T07:02:53;13.63;;;4.70;;
18259;SDS011;9256;52.236;5.712;2023-07-31T07:05:20;10.65;;;4.20;;
18259;SDS011;9256;52.236;5.712;2023-07-31T07:07:50;15.23;;;4.22;;
18259;SDS011;9256;52.236;5.712;2023-07-31T07:10:17;10.65;;;4.28;;
18259;SDS011;9256;52.236;5.712;2023-07-31T07:12:45;12.88;;;4.18;;
18259;SDS011;9256;52.236;5.712;2023-07-31T07:15:12;10.32;;;3.80;;
18259;SDS011;9256;52.236;5.712;2023-07-31T07:17:39;11.27;;;4.38;;
18259;SDS011;9256;52.236;5.712;2023-07-31T07:20:07;8.23;;;3.78;;
18259;SDS011;9256;52.236;5.712;2023-07-31T07:22:34;7.68;;;3.45;;
18259;SDS011;9256;52.236;5.712;2023-07-31T07:25:03;10.35;;;3.33;;
18259;SDS011;9256;52.236;5.712;2023-07-31T07:27:32;9.93;;;3.80;;
18259;SDS011;9256;52.236;5.712;2023-07-31T07:29:59;6.80;;;3.47;;
18259;SDS011;9256;52.236;5.712;2023-07-31T07:32:26;7.78;;;3.17;;
18259;SDS011;9256;52.236;5.712;2023-07-31T07:34:53;7.55;;;3.58;;
18259;SDS011;9256;52.236;5.712;2023-07-31T07:37:21;7.35;;;3.25;;
18259;SDS011;9256;52.236;5.712;2023-07-31T07:39:48;10.40;;;3.72;;
18259;SDS011;9256;52.236;5.712;2023-07-31T07:42:16;6.05;;;3.42;;
18259;SDS011;9256;52.236;5.712;2023-07-31T07:44:44;6.72;;;3.60;;
18259;SDS011;9256;52.236;5.712;2023-07-31T07:47:10;6.85;;;3.72;;
18259;SDS011;9256;52.236;5.712;2023-07-31T07:49:37;7.22;;;3.80;;
18259;SDS011;9256;52.236;5.712;2023-07-31T07:52:04;6.18;;;3.45;;
18259;SDS011;9256;52.236;5.712;2023-07-31T07:54:32;66.00;;;20.73;;
18259;SDS011;9256;52.236;5.712;2023-07-31T07:56:59;10.00;;;4.72;;
18259;SDS011;9256;52.236;5.712;2023-07-31T07:59:27;16.67;;;6.68;;
18259;SDS011;9256;52.236;5.712;2023-07-31T08:01:54;37.08;;;12.15;;
18259;SDS011;9256;52.236;5.712;2023-07-31T08:04:22;24.80;;;10.35;;
18259;SDS011;9256;52.236;5.712;2023-07-31T08:06:49;7.72;;;3.65;;
18259;SDS011;9256;52.236;5.712;2023-07-31T08:09:16;5.97;;;3.70;;
18259;SDS011;9256;52.236;5.712;2023-07-31T08:11:43;6.38;;;3.20;;
18259;SDS011;9256;52.236;5.712;2023-07-31T08:14:10;5.38;;;3.42;;
18259;SDS011;9256;52.236;5.712;2023-07-31T08:16:38;6.53;;;3.30;;
18259;SDS011;9256;52.236;5.712;2023-07-31T08:19:05;5.50;;;3.00;;
18259;SDS011;9256;52.236;5.712;2023-07-31T08:21:32;7.93;;;3.40;;
18259;SDS011;9256;52.236;5.712;2023-07-31T08:23:59;5.45;;;3.15;;
18259;SDS011;9256;52.236;5.712;2023-07-31T08:26:26;7.03;;;3.55;;
18259;SDS011;9256;52.236;5.712;2023-07-31T08:28:53;6.97;;;3.38;;
18259;SDS011;9256;52.236;5.712;2023-07-31T08:31:20;6.10;;;3.40;;
18259;SDS011;9256;52.236;5.712;2023-07-31T08:33:48;8.02;;;3.80;;
18259;SDS011;9256;52.236;5.712;2023-07-31T08:36:15;6.60;;;3.35;;
18259;SDS011;9256;52.236;5.712;2023-07-31T08:38:42;5.88;;;3.50;;
18259;SDS011;9256;52.236;5.712;2023-07-31T08:41:08;5.38;;;3.45;;
18259;SDS011;9256;52.236;5.712;2023-07-31T08:43:36;5.55;;;3.10;;
18259;SDS011;9256;52.236;5.712;2023-07-31T08:46:04;6.18;;;3.47;;
18259;SDS011;9256;52.236;5.712;2023-07-31T08:48:32;5.15;;;3.15;;
18259;SDS011;9256;52.236;5.712;2023-07-31T08:51:00;5.70;;;3.22;;
18259;SDS011;9256;52.236;5.712;2023-07-31T08:53:27;7.50;;;3.83;;
18259;SDS011;9256;52.236;5.712;2023-07-31T08:55:54;5.25;;;3.30;;
18259;SDS011;9256;52.236;5.712;2023-07-31T08:58:22;6.03;;;3.55;;
18259;SDS011;9256;52.236;5.712;2023-07-31T09:00:51;5.10;;;3.70;;
18259;SDS011;9256;52.236;5.712;2023-07-31T09:03:21;7.63;;;3.63;;
18259;SDS011;9256;52.236;5.712;2023-07-31T09:05:50;6.22;;;3.15;;
18259;SDS011;9256;52.236;5.712;2023-07-31T09:08:19;4.75;;;2.97;;
18259;SDS011;9256;52.236;5.712;2023-07-31T09:10:48;5.53;;;3.25;;
18259;SDS011;9256;52.236;5.712;2023-07-31T09:13:16;5.85;;;3.13;;
18259;SDS011;9256;52.236;5.712;2023-07-31T09:15:43;4.43;;;2.83;;
18259;SDS011;9256;52.236;5.712;2023-07-31T09:18:11;4.93;;;3.13;;
18259;SDS011;9256;52.236;5.712;2023-07-31T09:20:39;4.22;;;2.92;;
18259;SDS011;9256;52.236;5.712;2023-07-31T09:23:06;4.30;;;2.80;;
18259;SDS011;9256;52.236;5.712;2023-07-31T09:25:36;4.28;;;2.80;;
18259;SDS011;9256;52.236;5.712;2023-07-31T09:28:05;4.05;;;2.75;;
18259;SDS011;9256;52.236;5.712;2023-07-31T09:30:43;5.30;;;2.78;;
18259;SDS011;9256;52.236;5.712;2023-07-31T09:33:13;5.05;;;3.35;;
18259;SDS011;9256;52.236;5.712;2023-07-31T09:35:40;6.43;;;2.90;;
18259;SDS011;9256;52.236;5.712;2023-07-31T09:38:08;4.15;;;2.88;;
18259;SDS011;9256;52.236;5.712;2023-07-31T09:40:38;4.28;;;2.97;;
18259;SDS011;9256;52.236;5.712;2023-07-31T09:43:07;6.47;;;3.65;;
18259;SDS011;9256;52.236;5.712;2023-07-31T09:45:36;3.80;;;2.85;;
18259;SDS011;9256;52.236;5.712;2023-07-31T09:48:06;4.60;;;3.20;;
18259;SDS011;9256;52.236;5.712;2023-07-31T09:50:34;4.95;;;3.13;;
18259;SDS011;9256;52.236;5.712;2023-07-31T09:53:03;4.35;;;3.20;;
18259;SDS011;9256;52.236;5.712;2023-07-31T09:55:30;5.30;;;3.10;;
18259;SDS011;9256;52.236;5.712;2023-07-31T09:57:59;6.03;;;3.30;;
18259;SDS011;9256;52.236;5.712;2023-07-31T10:00:29;5.70;;;3.80;;
18259;SDS011;9256;52.236;5.712;2023-07-31T10:02:58;5.45;;;3.15;;
18259;SDS011;9256;52.236;5.712;2023-07-31T10:05:27;5.63;;;3.60;;
18259;SDS011;9256;52.236;5.712;2023-07-31T10:07:57;6.85;;;3.30;;
18259;SDS011;9256;52.236;5.712;2023-07-31T10:10:25;4.20;;;3.08;;
18259;SDS011;9256;52.236;5.712;2023-07-31T10:12:52;7.03;;;3.63;;
18259;SDS011;9256;52.236;5.712;2023-07-31T10:15:21;6.18;;;3.33;;
18259;SDS011;9256;52.236;5.712;2023-07-31T10:17:49;5.57;;;3.47;;
18259;SDS011;9256;52.236;5.712;2023-07-31T10:20:16;5.35;;;3.28;;
18259;SDS011;9256;52.236;5.712;2023-07-31T10:22:43;6.10;;;3.45;;
18259;SDS011;9256;52.236;5.712;2023-07-31T10:25:12;5.00;;;3.08;;
18259;SDS011;9256;52.236;5.712;2023-07-31T10:27:39;4.85;;;3.20;;
18259;SDS011;9256;52.236;5.712;2023-07-31T10:30:07;4.85;;;3.00;;
18259;SDS011;9256;52.236;5.712;2023-07-31T10:32:37;4.38;;;2.42;;
18259;SDS011;9256;52.236;5.712;2023-07-31T10:35:06;26.63;;;9.70;;
18259;SDS011;9256;52.236;5.712;2023-07-31T10:37:36;19.48;;;7.00;;
18259;SDS011;9256;52.236;5.712;2023-07-31T10:40:04;4.53;;;2.70;;
18259;SDS011;9256;52.236;5.712;2023-07-31T10:42:34;5.00;;;2.80;;
18259;SDS011;9256;52.236;5.712;2023-07-31T10:45:03;5.65;;;2.97;;
18259;SDS011;9256;52.236;5.712;2023-07-31T10:47:31;6.75;;;3.15;;
18259;SDS011;9256;52.236;5.712;2023-07-31T10:50:11;8.27;;;3.50;;
18259;SDS011;9256;52.236;5.712;2023-07-31T10:52:48;7.93;;;3.65;;
18259;SDS011;9256;52.236;5.712;2023-07-31T10:55:24;6.28;;;3.70;;
18259;SDS011;9256;52.236;5.712;2023-07-31T10:57:56;9.13;;;3.90;;
18259;SDS011;9256;52.236;5.712;2023-07-31T11:00:25;7.20;;;4.10;;
18259;SDS011;9256;52.236;5.712;2023-07-31T11:03:01;9.60;;;4.55;;
18259;SDS011;9256;52.236;5.712;2023-07-31T11:05:40;7.63;;;4.72;;
18259;SDS011;9256;52.236;5.712;2023-07-31T11:08:15;7.50;;;4.55;;
18259;SDS011;9256;52.236;5.712;2023-07-31T11:10:44;6.88;;;3.95;;
18259;SDS011;9256;52.236;5.712;2023-07-31T11:13:12;9.85;;;3.97;;
18259;SDS011;9256;52.236;5.712;2023-07-31T11:15:39;6.95;;;4.05;;
18259;SDS011;9256;52.236;5.712;2023-07-31T11:18:08;6.95;;;4.40;;
18259;SDS011;9256;52.236;5.712;2023-07-31T11:20:36;10.90;;;4.30;;
18259;SDS011;9256;52.236;5.712;2023-07-31T11:23:06;7.20;;;4.20;;
18259;SDS011;9256;52.236;5.712;2023-07-31T11:25:35;7.57;;;4.53;;
18259;SDS011;9256;52.236;5.712;2023-07-31T11:28:03;9.70;;;4.45;;
18259;SDS011;9256;52.236;5.712;2023-07-31T11:30:31;8.23;;;4.47;;
18259;SDS011;9256;52.236;5.712;2023-07-31T11:32:59;9.02;;;4.40;;
18259;SDS011;9256;52.236;5.712;2023-07-31T11:35:29;7.35;;;4.18;;
18259;SDS011;9256;52.236;5.712;2023-07-31T11:37:57;8.20;;;4.35;;
18259;SDS011;9256;52.236;5.712;2023-07-31T11:40:24;6.50;;;3.55;;
18259;SDS011;9256;52.236;5.712;2023-07-31T11:42:57;7.07;;;3.70;;
18259;SDS011;9256;52.236;5.712;2023-07-31T11:45:25;6.70;;;3.60;;
18259;SDS011;9256;52.236;5.712;2023-07-31T11:47:54;6.10;;;3.47;;
18259;SDS011;9256;52.236;5.712;2023-07-31T11:50:23;5.70;;;3.20;;
18259;SDS011;9256;52.236;5.712;2023-07-31T11:52:54;4.72;;;2.83;;
18259;SDS011;9256;52.236;5.712;2023-07-31T11:55:25;4.78;;;2.80;;
18259;SDS011;9256;52.236;5.712;2023-07-31T11:57:53;7.32;;;2.80;;
18259;SDS011;9256;52.236;5.712;2023-07-31T12:00:23;4.82;;;2.83;;
18259;SDS011;9256;52.236;5.712;2023-07-31T12:02:51;5.40;;;2.70;;
18259;SDS011;9256;52.236;5.712;2023-07-31T12:05:19;4.57;;;2.30;;
18259;SDS011;9256;52.236;5.712;2023-07-31T12:07:49;4.50;;;2.03;;
18259;SDS011;9256;52.236;5.712;2023-07-31T12:10:25;3.30;;;2.38;;
18259;SDS011;9256;52.236;5.712;2023-07-31T12:13:00;3.45;;;2.10;;
18259;SDS011;9256;52.236;5.712;2023-07-31T12:15:29;3.97;;;2.28;;
18259;SDS011;9256;52.236;5.712;2023-07-31T12:18:00;5.15;;;2.75;;
18259;SDS011;9256;52.236;5.712;2023-07-31T12:20:29;4.20;;;2.63;;
18259;SDS011;9256;52.236;5.712;2023-07-31T12:22:56;3.60;;;2.38;;
18259;SDS011;9256;52.236;5.712;2023-07-31T12:25:29;4.97;;;2.65;;
18259;SDS011;9256;52.236;5.712;2023-07-31T12:27:57;4.30;;;2.80;;
18259;SDS011;9256;52.236;5.712;2023-07-31T12:30:28;6.68;;;3.45;;
18259;SDS011;9256;52.236;5.712;2023-07-31T12:32:55;5.97;;;3.22;;
18259;SDS011;9256;52.236;5.712;2023-07-31T12:35:22;8.98;;;4.20;;
18259;SDS011;9256;52.236;5.712;2023-07-31T12:37:49;10.45;;;4.35;;
18259;SDS011;9256;52.236;5.712;2023-07-31T12:40:16;8.88;;;4.40;;
18259;SDS011;9256;52.236;5.712;2023-07-31T12:42:44;8.68;;;4.80;;
18259;SDS011;9256;52.236;5.712;2023-07-31T12:45:11;7.80;;;4.90;;
18259;SDS011;9256;52.236;5.712;2023-07-31T12:47:38;7.70;;;4.43;;
18259;SDS011;9256;52.236;5.712;2023-07-31T12:50:06;7.68;;;4.75;;
18259;SDS011;9256;52.236;5.712;2023-07-31T12:52:33;8.60;;;4.90;;
18259;SDS011;9256;52.236;5.712;2023-07-31T12:55:00;7.38;;;4.40;;
18259;SDS011;9256;52.236;5.712;2023-07-31T12:57:27;6.47;;;4.22;;
18259;SDS011;9256;52.236;5.712;2023-07-31T12:59:55;8.02;;;4.45;;
18259;SDS011;9256;52.236;5.712;2023-07-31T13:02:22;7.07;;;3.97;;
18259;SDS011;9256;52.236;5.712;2023-07-31T13:04:49;7.93;;;3.80;;
18259;SDS011;9256;52.236;5.712;2023-07-31T13:07:17;6.20;;;3.83;;
18259;SDS011;9256;52.236;5.712;2023-07-31T13:09:44;5.80;;;3.55;;
18259;SDS011;9256;52.236;5.712;2023-07-31T13:12:11;6.07;;;3.85;;
18259;SDS011;9256;52.236;5.712;2023-07-31T13:14:38;6.55;;;3.58;;
18259;SDS011;9256;52.236;5.712;2023-07-31T13:17:06;6.40;;;3.97;;
18259;SDS011;9256;52.236;5.712;2023-07-31T13:19:33;6.63;;;3.95;;
18259;SDS011;9256;52.236;5.712;2023-07-31T13:22:00;8.30;;;4.82;;
18259;SDS011;9256;52.236;5.712;2023-07-31T13:24:27;6.40;;;4.20;;
18259;SDS011;9256;52.236;5.712;2023-07-31T13:26:54;8.63;;;4.28;;
18259;SDS011;9256;52.236;5.712;2023-07-31T13:29:22;6.93;;;4.40;;
18259;SDS011;9256;52.236;5.712;2023-07-31T13:31:49;7.60;;;4.50;;
18259;SDS011;9256;52.236;5.712;2023-07-31T13:34:17;7.65;;;4.50;;
18259;SDS011;9256;52.236;5.712;2023-07-31T13:36:44;7.43;;;4.60;;
18259;SDS011;9256;52.236;5.712;2023-07-31T13:39:11;8.40;;;5.45;;
18259;SDS011;9256;52.236;5.712;2023-07-31T13:41:38;7.22;;;4.75;;
18259;SDS011;9256;52.236;5.712;2023-07-31T13:44:05;8.60;;;4.72;;
18259;SDS011;9256;52.236;5.712;2023-07-31T13:46:32;7.10;;;4.60;;
18259;SDS011;9256;52.236;5.712;2023-07-31T13:48:59;7.75;;;4.95;;
18259;SDS011;9256;52.236;5.712;2023-07-31T13:51:27;9.55;;;5.40;;
18259;SDS011;9256;52.236;5.712;2023-07-31T13:53:54;8.05;;;5.03;;
18259;SDS011;9256;52.236;5.712;2023-07-31T13:56:21;7.45;;;4.70;;
18259;SDS011;9256;52.236;5.712;2023-07-31T13:58:48;9.35;;;5.38;;
18259;SDS011;9256;52.236;5.712;2023-07-31T14:01:15;6.72;;;4.50;;
18259;SDS011;9256;52.236;5.712;2023-07-31T14:03:42;8.43;;;4.30;;
18259;SDS011;9256;52.236;5.712;2023-07-31T14:06:09;7.18;;;3.88;;
18259;SDS011;9256;52.236;5.712;2023-07-31T14:08:38;6.07;;;4.03;;
18259;SDS011;9256;52.236;5.712;2023-07-31T14:11:05;5.80;;;3.63;;
18259;SDS011;9256;52.236;5.712;2023-07-31T14:13:32;6.25;;;3.83;;
18259;SDS011;9256;52.236;5.712;2023-07-31T14:15:59;29.88;;;13.32;;
18259;SDS011;9256;52.236;5.712;2023-07-31T14:18:25;29.00;;;10.95;;
18259;SDS011;9256;52.236;5.712;2023-07-31T14:20:52;72.43;;;24.30;;
18259;SDS011;9256;52.236;5.712;2023-07-31T14:23:19;6.78;;;3.72;;
18259;SDS011;9256;52.236;5.712;2023-07-31T14:25:48;27.25;;;9.80;;
18259;SDS011;9256;52.236;5.712;2023-07-31T14:28:14;36.50;;;12.45;;
18259;SDS011;9256;52.236;5.712;2023-07-31T14:30:41;14.27;;;6.20;;
18259;SDS011;9256;52.236;5.712;2023-07-31T14:33:08;9.35;;;4.70;;
18259;SDS011;9256;52.236;5.712;2023-07-31T14:35:35;8.02;;;4.53;;
18259;SDS011;9256;52.236;5.712;2023-07-31T14:38:02;6.50;;;4.07;;
18259;SDS011;9256;52.236;5.712;2023-07-31T14:40:29;8.57;;;4.60;;
18259;SDS011;9256;52.236;5.712;2023-07-31T14:42:57;7.07;;;4.60;;
18259;SDS011;9256;52.236;5.712;2023-07-31T14:45:24;8.77;;;5.63;;
18259;SDS011;9256;52.236;5.712;2023-07-31T14:47:51;9.43;;;6.03;;
18259;SDS011;9256;52.236;5.712;2023-07-31T14:50:19;9.40;;;5.78;;
18259;SDS011;9256;52.236;5.712;2023-07-31T14:52:46;11.10;;;6.18;;
18259;SDS011;9256;52.236;5.712;2023-07-31T14:55:13;12.80;;;6.47;;
18259;SDS011;9256;52.236;5.712;2023-07-31T14:57:40;11.60;;;7.00;;
18259;SDS011;9256;52.236;5.712;2023-07-31T15:00:09;13.82;;;7.45;;